Time;durP1;ratioP1;P1;durP2;ratioP2;P2;SDS_P1;SDS_P2;PMS_P1;PMS_P2;Temp;Humidity;BMP_temperature;BMP_pressure;BME280_temperature;BME280_humidity;BME280_pressure;Samples;Min_cycle;Max_cycle;Signal;HPM_P1;HPM_P2
2022/04/19 00:00:54;;;;;;;6.30;3.35;;;4.20;99.90;;;;;;4994626;28;20302;-86
2022/04/19 00:03:20;;;;;;;3.78;2.72;;;4.10;99.90;;;;;;4994912;28;20079;-86
2022/04/19 00:05:47;;;;;;;5.70;3.22;;;4.10;99.90;;;;;;4994924;28;20565;-86
2022/04/19 00:08:15;;;;;;;5.43;3.03;;;4.10;99.90;;;;;;5011326;28;20038;-86
2022/04/19 00:10:42;;;;;;;3.78;2.53;;;4.00;99.90;;;;;;5013265;28;20116;-87
2022/04/19 00:13:10;;;;;;;4.10;2.70;;;4.00;99.90;;;;;;5031050;28;20033;-86
2022/04/19 00:15:38;;;;;;;4.82;2.50;;;4.00;99.90;;;;;;4998246;28;20036;-86
2022/04/19 00:18:05;;;;;;;5.72;2.97;;;4.00;99.90;;;;;;5016080;28;20393;-86
2022/04/19 00:20:32;;;;;;;6.65;3.60;;;3.90;99.90;;;;;;4997578;28;20026;-86
2022/04/19 00:22:58;;;;;;;7.18;2.60;;;3.90;99.90;;;;;;4998510;28;20053;-86
2022/04/19 00:25:24;;;;;;;4.82;3.20;;;3.90;99.90;;;;;;4998096;28;20033;-86
2022/04/19 00:27:50;;;;;;;6.55;3.60;;;3.80;99.90;;;;;;4998247;28;20094;-86
2022/04/19 00:30:16;;;;;;;12.82;5.75;;;3.80;99.90;;;;;;4998310;28;20042;-87
2022/04/19 00:32:42;;;;;;;16.50;6.82;;;3.70;99.90;;;;;;4998151;28;20025;-86
2022/04/19 00:35:10;;;;;;;12.43;6.50;;;3.70;99.90;;;;;;4997898;28;20030;-86
2022/04/19 00:37:37;;;;;;;15.25;7.22;;;3.70;99.90;;;;;;4997939;28;20022;-86
2022/04/19 00:40:05;;;;;;;10.95;5.18;;;3.60;99.90;;;;;;4997523;28;20026;-86
2022/04/19 00:42:31;;;;;;;12.00;5.35;;;3.60;99.90;;;;;;4997500;28;20386;-86
2022/04/19 00:45:03;;;;;;;11.00;5.00;;;3.60;99.90;;;;;;5015127;28;20248;-86
2022/04/19 00:47:32;;;;;;;7.45;4.53;;;3.60;99.90;;;;;;4997780;28;20116;-86
2022/04/19 00:50:02;;;;;;;9.73;4.57;;;3.60;99.90;;;;;;4997301;28;20375;-86
2022/04/19 00:52:31;;;;;;;11.50;4.15;;;3.50;99.90;;;;;;5014196;28;20030;-86
2022/04/19 00:54:59;;;;;;;5.60;3.92;;;3.50;99.90;;;;;;4996806;28;20117;-86
2022/04/19 00:57:26;;;;;;;6.80;3.05;;;3.50;99.90;;;;;;5030420;28;20036;-87
2022/04/19 00:59:53;;;;;;;5.32;3.05;;;3.50;99.90;;;;;;4997191;28;20025;-86
2022/04/19 01:02:20;;;;;;;5.90;2.70;;;3.60;99.90;;;;;;4997460;28;20393;-86
2022/04/19 01:04:48;;;;;;;4.53;3.63;;;3.50;99.90;;;;;;4997258;28;20033;-86
2022/04/19 01:07:19;;;;;;;4.93;2.75;;;3.50;99.90;;;;;;5013472;28;20123;-86
2022/04/19 01:09:48;;;;;;;6.75;3.40;;;3.50;99.90;;;;;;4997058;28;20029;-86
2022/04/19 01:15:06;;;;;;;6.85;3.45;;;3.40;99.90;;;;;;5029818;28;20034;-86
2022/04/19 01:17:45;;;;;;;5.15;3.22;;;3.40;99.90;;;;;;4997269;28;20033;-86
2022/04/19 01:20:15;;;;;;;4.88;3.08;;;3.30;99.90;;;;;;5013079;28;20803;-86
2022/04/19 01:22:43;;;;;;;4.45;3.00;;;3.20;99.90;;;;;;4996890;28;20095;-86
2022/04/19 01:25:31;;;;;;;23.33;11.93;;;3.20;99.90;;;;;;4996954;28;20041;-86
2022/04/19 01:27:57;;;;;;;262.95;108.15;;;3.20;99.90;;;;;;4996330;28;20041;-86
2022/04/19 01:30:23;;;;;;;31.70;13.82;;;3.10;99.90;;;;;;4980670;28;20025;-86
2022/04/19 01:32:52;;;;;;;8.35;5.90;;;3.10;99.90;;;;;;4996899;28;20489;-86
2022/04/19 01:35:21;;;;;;;10.98;5.78;;;3.00;99.90;;;;;;4996824;28;20026;-86
2022/04/19 01:37:57;;;;;;;8.20;4.28;;;2.90;99.90;;;;;;5014171;28;20065;-86
2022/04/19 01:40:36;;;;;;;6.78;4.07;;;2.90;99.90;;;;;;4998255;28;20026;-87
2022/04/19 01:43:04;;;;;;;6.70;4.00;;;2.80;99.90;;;;;;4996797;28;20569;-86
2022/04/19 01:45:44;;;;;;;5.57;3.67;;;2.80;99.90;;;;;;4990741;28;20032;-86
2022/04/19 01:48:16;;;;;;;10.90;4.28;;;2.80;99.90;;;;;;4996600;28;20362;-86
2022/04/19 01:50:42;;;;;;;7.80;4.13;;;2.80;99.90;;;;;;4996187;28;20037;-86
2022/04/19 01:53:08;;;;;;;7.53;4.28;;;2.80;99.90;;;;;;4980330;28;20100;-86
2022/04/19 01:55:35;;;;;;;8.18;4.75;;;2.70;99.90;;;;;;4996261;28;20037;-86
2022/04/19 01:58:07;;;;;;;6.53;4.18;;;2.60;99.90;;;;;;4996991;28;20100;-86
2022/04/19 02:00:37;;;;;;;6.25;4.22;;;2.60;99.90;;;;;;4996361;28;20095;-86
2022/04/19 02:03:05;;;;;;;5.32;3.85;;;2.60;99.90;;;;;;4996641;28;20112;-86
2022/04/19 02:05:31;;;;;;;6.80;4.05;;;2.70;99.90;;;;;;4996232;28;20057;-86
2022/04/19 02:08:00;;;;;;;7.97;4.88;;;2.60;99.90;;;;;;4996062;28;20025;-86
2022/04/19 02:10:28;;;;;;;9.20;4.43;;;2.50;99.90;;;;;;5012325;28;20034;-86
2022/04/19 02:12:54;;;;;;;38.15;17.40;;;2.50;99.90;;;;;;4995837;28;20137;-86
2022/04/19 02:15:34;;;;;;;25.63;11.43;;;2.50;99.90;;;;;;4998173;28;20029;-86
2022/04/19 02:18:10;;;;;;;22.40;9.55;;;2.50;99.90;;;;;;4995790;28;20030;-86
2022/04/19 02:20:36;;;;;;;83.88;35.28;;;2.50;99.90;;;;;;4995942;28;20029;-86
2022/04/19 02:23:02;;;;;;;82.63;34.22;;;2.40;99.90;;;;;;4996013;28;20120;-86
2022/04/19 02:25:28;;;;;;;48.85;20.60;;;2.40;99.90;;;;;;4995671;28;20457;-86
2022/04/19 02:27:56;;;;;;;134.07;51.40;;;2.40;99.90;;;;;;5028634;28;20718;-86
2022/04/19 02:30:27;;;;;;;102.97;37.67;;;2.50;99.90;;;;;;5012056;28;20084;-86
2022/04/19 02:33:02;;;;;;;50.92;20.10;;;2.50;99.90;;;;;;4995091;28;20122;-86
2022/04/19 02:35:31;;;;;;;12.80;6.68;;;2.60;99.90;;;;;;4995417;28;20075;-86
2022/04/19 02:37:59;;;;;;;29.13;12.70;;;2.60;99.90;;;;;;4995770;28;20125;-86
2022/04/19 02:40:30;;;;;;;7.90;4.20;;;2.70;99.90;;;;;;4995501;28;20026;-86
2022/04/19 02:42:59;;;;;;;8.05;4.25;;;2.80;99.90;;;;;;4995267;28;20592;-86
2022/04/19 02:45:26;;;;;;;7.57;3.95;;;2.80;99.90;;;;;;4995360;28;20638;-86
2022/04/19 02:48:04;;;;;;;41.42;16.58;;;2.70;99.90;;;;;;4979395;28;20033;-86
2022/04/19 02:50:33;;;;;;;8.80;4.72;;;2.60;99.90;;;;;;4988041;28;20022;-86
2022/04/19 02:53:03;;;;;;;6.25;4.10;;;2.60;99.90;;;;;;4995941;28;20037;-86
2022/04/19 02:55:30;;;;;;;7.30;4.38;;;2.50;99.90;;;;;;4995125;28;20411;-86
2022/04/19 02:57:56;;;;;;;9.32;5.10;;;2.40;99.90;;;;;;4994834;28;20037;-86
2022/04/19 03:00:23;;;;;;;6.35;4.13;;;2.30;99.90;;;;;;5011526;28;20080;-86
2022/04/19 03:02:52;;;;;;;9.30;4.20;;;2.30;99.90;;;;;;5011531;28;20117;-86
2022/04/19 03:05:19;;;;;;;5.57;3.85;;;2.20;99.90;;;;;;5027818;28;20397;-86
2022/04/19 03:07:46;;;;;;;6.43;3.85;;;2.20;99.90;;;;;;5027806;28;20037;-86
2022/04/19 03:10:13;;;;;;;7.00;3.72;;;2.10;99.90;;;;;;4995312;28;20036;-86
2022/04/19 03:12:39;;;;;;;7.22;4.60;;;2.10;99.90;;;;;;4995419;28;20037;-86
2022/04/19 03:15:15;;;;;;;9.60;4.60;;;2.00;99.90;;;;;;4995894;28;20046;-86
2022/04/19 03:17:41;;;;;;;9.10;4.40;;;2.00;99.90;;;;;;4995778;28;20088;-86
2022/04/19 03:20:08;;;;;;;6.88;5.20;;;2.00;99.90;;;;;;4988055;28;20038;-86
2022/04/19 03:28:09;;;;;;;9.95;6.00;;;2.00;99.90;;;;;;5027551;28;20030;-86
2022/04/19 03:30:36;;;;;;;10.65;7.00;;;2.00;99.90;;;;;;4994509;28;20034;-86
2022/04/19 03:33:02;;;;;;;10.38;6.40;;;2.00;99.90;;;;;;4994786;28;20034;-86
2022/04/19 03:35:28;;;;;;;11.48;6.88;;;2.00;99.90;;;;;;4994757;28;20120;-86
2022/04/19 03:37:54;;;;;;;12.70;6.20;;;2.10;99.90;;;;;;4994597;28;20149;-86
2022/04/19 03:40:20;;;;;;;10.27;6.57;;;2.10;99.90;;;;;;4978420;28;20541;-87
2022/04/19 03:42:46;;;;;;;12.10;6.95;;;2.10;99.90;;;;;;4994779;28;20200;-86
2022/04/19 03:45:12;;;;;;;13.60;7.38;;;2.10;99.90;;;;;;5011320;28;20076;-86
2022/04/19 03:47:38;;;;;;;14.25;6.32;;;2.10;99.90;;;;;;4998595;28;20450;-86
2022/04/19 03:50:06;;;;;;;15.68;7.10;;;2.10;99.90;;;;;;4998426;28;20121;-86
2022/04/19 03:52:32;;;;;;;11.18;7.57;;;2.20;99.90;;;;;;4982545;28;20038;-86
2022/04/19 03:54:58;;;;;;;11.50;6.75;;;2.20;99.90;;;;;;4998830;28;20029;-87
2022/04/19 03:57:27;;;;;;;14.02;6.53;;;2.20;99.90;;;;;;5014880;28;20044;-86
2022/04/19 03:59:54;;;;;;;13.93;7.10;;;2.20;99.90;;;;;;4998493;28;20498;-87
2022/04/19 04:02:24;;;;;;;11.63;6.65;;;2.10;99.90;;;;;;4998826;28;20461;-86
2022/04/19 04:04:49;;;;;;;11.48;7.20;;;2.10;99.90;;;;;;4998349;28;20080;-86
2022/04/19 04:07:15;;;;;;;12.27;7.13;;;2.10;99.90;;;;;;4998514;28;20022;-86
2022/04/19 04:09:41;;;;;;;13.90;6.55;;;2.10;99.90;;;;;;4998339;28;20659;-86
2022/04/19 04:12:10;;;;;;;14.90;6.53;;;2.20;99.90;;;;;;5014698;28;20034;-85
2022/04/19 04:14:40;;;;;;;11.85;6.53;;;2.20;99.90;;;;;;4998171;28;20453;-86
2022/04/19 04:17:06;;;;;;;9.48;5.88;;;2.10;99.90;;;;;;5014456;28;20053;-87
2022/04/19 04:19:32;;;;;;;11.25;5.90;;;2.10;99.90;;;;;;4997900;28;20034;-86
2022/04/19 04:21:58;;;;;;;11.27;5.35;;;2.10;99.90;;;;;;4998078;28;20505;-86
2022/04/19 04:24:25;;;;;;;8.65;6.13;;;2.20;99.90;;;;;;4998436;28;20037;-87
2022/04/19 04:26:53;;;;;;;12.45;5.00;;;2.10;99.90;;;;;;4998035;28;20037;-86
2022/04/19 04:29:21;;;;;;;7.65;4.88;;;2.20;99.90;;;;;;4998754;28;20030;-89
2022/04/19 04:31:49;;;;;;;10.38;6.53;;;2.30;99.90;;;;;;4998546;28;20034;-90
2022/04/19 04:34:17;;;;;;;21.75;8.85;;;2.40;99.90;;;;;;5015002;28;20129;-89
2022/04/19 04:36:44;;;;;;;23.15;10.00;;;2.40;99.90;;;;;;5015370;28;20025;-90
2022/04/19 04:39:15;;;;;;;43.53;16.98;;;2.50;99.90;;;;;;4982987;28;20032;-90
2022/04/19 04:42:02;;;;;;;44.92;16.65;;;2.50;99.90;;;;;;4991182;28;20030;-90
2022/04/19 04:44:28;;;;;;;31.00;13.80;;;2.40;99.90;;;;;;4998454;28;20034;-89
2022/04/19 04:49:56;;;;;;;23.15;9.85;;;2.60;99.90;;;;;;4998196;28;20091;-91
2022/04/19 04:52:22;;;;;;;17.83;9.00;;;2.70;99.90;;;;;;4998128;28;20030;-90
2022/04/19 04:54:50;;;;;;;17.45;10.35;;;2.70;99.90;;;;;;5014916;28;20388;-90
2022/04/19 04:57:26;;;;;;;20.98;11.63;;;2.70;99.90;;;;;;5031032;28;20032;-90
2022/04/19 04:59:52;;;;;;;17.67;9.82;;;2.80;99.90;;;;;;4998487;28;20034;-89
2022/04/19 05:02:23;;;;;;;19.17;10.05;;;2.90;99.90;;;;;;4998273;28;20022;-90
2022/04/19 05:04:49;;;;;;;26.55;10.73;;;2.90;99.90;;;;;;4998083;28;20113;-91
2022/04/19 05:07:15;;;;;;;29.63;12.00;;;3.00;99.90;;;;;;4998316;28;20426;-89
2022/04/19 05:09:46;;;;;;;26.70;12.77;;;3.10;99.90;;;;;;4998218;28;20033;-91
2022/04/19 05:12:12;;;;;;;32.83;13.43;;;3.20;99.90;;;;;;4998467;28;20128;-90
2022/04/19 05:14:39;;;;;;;31.92;13.63;;;3.20;99.90;;;;;;4997943;28;20126;-90
2022/04/19 05:17:05;;;;;;;17.50;7.88;;;3.30;99.90;;;;;;4998350;28;20136;-91
2022/04/19 05:19:36;;;;;;;13.20;7.00;;;3.40;99.90;;;;;;4998172;28;20132;-90
2022/04/19 05:22:03;;;;;;;12.48;6.70;;;3.60;99.90;;;;;;5003223;28;20103;-90
2022/04/19 05:24:29;;;;;;;11.73;7.15;;;3.80;99.90;;;;;;4998020;28;20083;-90
2022/04/19 05:26:55;;;;;;;16.15;8.48;;;3.90;99.90;;;;;;4998161;28;20029;-91
2022/04/19 05:29:22;;;;;;;16.25;8.15;;;4.10;99.90;;;;;;5030534;28;20030;-91
2022/04/19 05:31:48;;;;;;;14.35;7.00;;;4.30;99.90;;;;;;4997994;28;20157;-91
2022/04/19 05:34:17;;;;;;;16.60;8.80;;;4.30;99.90;;;;;;4997878;28;20493;-91
2022/04/19 05:36:43;;;;;;;17.63;8.82;;;4.40;99.90;;;;;;4998043;28;20033;-91
2022/04/19 05:39:09;;;;;;;13.98;8.38;;;4.50;99.90;;;;;;5014093;28;20041;-90
2022/04/19 05:41:39;;;;;;;17.63;7.68;;;4.60;99.90;;;;;;4997621;28;20026;-90
2022/04/19 05:44:06;;;;;;;15.45;8.48;;;4.80;99.90;;;;;;4997746;28;20025;-89
2022/04/19 05:46:32;;;;;;;13.90;8.20;;;4.90;99.90;;;;;;4998211;28;20022;-91
2022/04/19 05:48:59;;;;;;;17.38;8.05;;;5.00;99.90;;;;;;5013910;28;20052;-90
2022/04/19 05:51:25;;;;;;;13.40;7.78;;;5.10;99.90;;;;;;4981351;28;20036;-91
2022/04/19 05:53:51;;;;;;;13.32;7.50;;;5.20;99.90;;;;;;4997339;28;20109;-89
2022/04/19 05:56:17;;;;;;;13.15;7.88;;;5.40;99.90;;;;;;4997520;28;20066;-89
2022/04/19 05:58:43;;;;;;;17.08;7.40;;;5.50;99.90;;;;;;4997409;28;20041;-89
2022/04/19 06:01:09;;;;;;;11.27;7.65;;;5.70;99.90;;;;;;4998029;28;20076;-89
2022/04/19 06:06:22;;;;;;;13.05;7.13;;;6.00;99.90;;;;;;5030636;28;20022;-90
2022/04/19 06:08:53;;;;;;;15.50;6.72;;;6.10;99.90;;;;;;4997873;28;20033;-90
2022/04/19 06:11:19;;;;;;;11.60;7.03;;;6.20;99.90;;;;;;4998352;28;20030;-90
2022/04/19 06:13:45;;;;;;;10.32;6.38;;;6.30;99.90;;;;;;4999210;28;20030;-90
2022/04/19 06:16:12;;;;;;;13.00;7.03;;;6.50;99.90;;;;;;4999484;28;20052;-91
2022/04/19 06:18:42;;;;;;;13.88;6.75;;;6.70;99.90;;;;;;4999963;28;20500;-90
2022/04/19 06:21:12;;;;;;;14.02;6.53;;;7.00;99.90;;;;;;4998944;28;20033;-91
2022/04/19 06:23:38;;;;;;;11.23;7.05;;;7.20;99.90;;;;;;4998082;28;20030;-90
2022/04/19 06:26:04;;;;;;;10.10;6.50;;;7.40;99.90;;;;;;4997268;28;20113;-90
2022/04/19 06:28:31;;;;;;;14.10;7.18;;;7.80;99.90;;;;;;4990056;28;20030;-90
2022/04/19 06:31:15;;;;;;;16.42;6.97;;;8.10;99.90;;;;;;5015881;28;20512;-90
2022/04/19 06:33:45;;;;;;;10.75;6.72;;;8.30;99.90;;;;;;4997949;28;20124;-91
2022/04/19 06:36:12;;;;;;;13.05;7.55;;;8.60;99.90;;;;;;4998241;28;20034;-90
2022/04/19 06:38:37;;;;;;;11.45;6.38;;;8.80;99.90;;;;;;4998073;28;20141;-91
2022/04/19 06:41:03;;;;;;;16.40;6.57;;;9.00;99.90;;;;;;4997852;28;20108;-90
2022/04/19 06:43:32;;;;;;;13.93;6.72;;;9.20;99.90;;;;;;4987485;28;20022;-91
2022/04/19 06:46:13;;;;;;;9.60;6.15;;;9.30;99.90;;;;;;4995760;28;20026;-90
2022/04/19 06:48:40;;;;;;;13.00;5.80;;;9.50;99.90;;;;;;5014373;28;20037;-90
2022/04/19 06:51:07;;;;;;;9.43;5.60;;;9.60;99.90;;;;;;5014132;28;20109;-91
2022/04/19 06:53:33;;;;;;;8.98;5.10;;;9.70;99.90;;;;;;5014369;28;20026;-89
2022/04/19 06:56:04;;;;;;;8.88;5.53;;;9.90;99.90;;;;;;4998590;28;20401;-91
2022/04/19 06:58:31;;;;;;;12.45;6.47;;;10.10;99.90;;;;;;4997280;28;20080;-90
2022/04/19 07:00:57;;;;;;;10.05;5.88;;;10.20;99.90;;;;;;4996971;28;20630;-91
2022/04/19 07:04:12;;;;;;;8.75;5.75;;;10.30;99.90;;;;;;4997322;28;20033;-90
2022/04/19 07:06:51;;;;;;;10.88;6.72;;;10.40;99.90;;;;;;5014213;28;20026;-90
2022/04/19 07:09:17;;;;;;;11.43;6.00;;;10.50;99.90;;;;;;4997190;28;20125;-91
2022/04/19 07:11:44;;;;;;;10.00;5.80;;;10.60;99.90;;;;;;4997560;28;20025;-90
2022/04/19 07:14:17;;;;;;;7.18;4.80;;;10.60;99.90;;;;;;4997552;28;20117;-90
2022/04/19 07:17:01;;;;;;;10.02;6.20;;;10.80;99.90;;;;;;5000252;28;20044;-91
2022/04/19 07:28:10;;;;;;;11.80;6.30;;;11.20;99.90;;;;;;4990336;28;20044;-91
2022/04/19 07:30:46;;;;;;;11.02;6.38;;;11.20;99.90;;;;;;5001857;28;20057;-91
2022/04/19 07:33:13;;;;;;;16.38;6.95;;;11.30;99.90;;;;;;5017199;28;20485;-90
2022/04/19 07:35:41;;;;;;;13.65;6.75;;;11.40;99.90;;;;;;5017726;28;20116;-90
2022/04/19 07:38:08;;;;;;;12.77;6.93;;;11.40;99.90;;;;;;5001548;28;20146;-90
2022/04/19 07:40:45;;;;;;;10.65;5.97;;;11.50;99.90;;;;;;4985674;28;20047;-90
2022/04/19 07:43:11;;;;;;;12.20;6.55;;;11.50;99.90;;;;;;5001135;28;20446;-91
2022/04/19 07:45:37;;;;;;;9.90;6.05;;;11.60;99.90;;;;;;5016968;28;20057;-90
2022/04/19 07:48:06;;;;;;;11.50;7.13;;;11.70;99.90;;;;;;5017858;28;20052;-91
2022/04/19 07:50:39;;;;;;;14.15;7.03;;;11.60;99.90;;;;;;5016652;28;20030;-90
2022/04/19 07:53:05;;;;;;;11.38;6.65;;;11.60;99.90;;;;;;5000701;28;20026;-90
2022/04/19 07:55:31;;;;;;;11.38;6.57;;;11.50;99.90;;;;;;5016797;28;20113;-91
2022/04/19 07:57:57;;;;;;;10.55;6.38;;;11.50;99.90;;;;;;5016888;28;20172;-92
2022/04/19 08:00:27;;;;;;;10.65;6.63;;;11.70;99.90;;;;;;5000674;28;20585;-91
2022/04/19 08:02:55;;;;;;;9.95;6.35;;;11.70;99.90;;;;;;5001372;28;20477;-90
2022/04/19 08:05:23;;;;;;;12.05;7.00;;;11.80;99.90;;;;;;5000734;28;20030;-91
2022/04/19 08:07:49;;;;;;;9.38;6.13;;;11.90;99.90;;;;;;4984514;28;20030;-92
2022/04/19 08:10:17;;;;;;;12.43;6.93;;;12.00;99.90;;;;;;5000256;28;20026;-90
2022/04/19 08:12:44;;;;;;;13.73;7.13;;;12.10;99.90;;;;;;5001896;28;20894;-92
2022/04/19 08:15:09;;;;;;;10.73;6.53;;;12.20;99.90;;;;;;5000791;28;20084;-90
2022/04/19 08:17:37;;;;;;;13.60;6.47;;;12.30;99.90;;;;;;5017024;28;20032;-90
2022/04/19 08:20:07;;;;;;;10.50;6.18;;;12.40;99.90;;;;;;5000566;28;20508;-90
2022/04/19 08:22:35;;;;;;;11.35;6.65;;;12.30;99.90;;;;;;5000469;28;20026;-91
2022/04/19 08:25:06;;;;;;;11.80;6.63;;;12.30;99.90;;;;;;4984415;28;20022;-90
2022/04/19 08:27:32;;;;;;;12.23;6.68;;;12.40;99.90;;;;;;4984702;28;20034;-90
2022/04/19 08:29:58;;;;;;;12.25;6.57;;;12.60;99.90;;;;;;4983942;28;20435;-90
2022/04/19 08:32:23;;;;;;;9.38;6.22;;;12.70;99.90;;;;;;4999245;28;20030;-90
2022/04/19 08:34:49;;;;;;;11.98;6.38;;;12.90;99.90;;;;;;4999919;28;20025;-91
2022/04/19 08:37:15;;;;;;;6.55;4.38;;;13.20;99.90;;;;;;5000368;28;20127;-91
2022/04/19 08:39:42;;;;;;;5.72;3.95;;;13.30;99.90;;;;;;5000318;28;20034;-91
2022/04/19 08:42:08;;;;;;;9.45;4.60;;;13.30;99.90;;;;;;5001108;28;20492;-90
2022/04/19 08:45:01;;;;;;;12.35;7.88;;;13.40;99.90;;;;;;5001046;28;20034;-89
2022/04/19 08:47:28;;;;;;;12.02;6.70;;;13.60;96.10;;;;;;5017999;28;20069;-91
2022/04/19 08:49:55;;;;;;;14.23;7.85;;;13.70;96.70;;;;;;5000216;28;20528;-91
2022/04/19 08:52:21;;;;;;;12.20;7.30;;;14.00;93.90;;;;;;5000197;28;20030;-91
2022/04/19 08:57:33;;;;;;;15.25;7.72;;;14.40;92.10;;;;;;5017543;28;20038;-91
2022/04/19 09:00:01;;;;;;;11.82;6.72;;;14.50;91.60;;;;;;4999847;28;20117;-91
2022/04/19 09:02:32;;;;;;;9.68;6.15;;;14.60;94.60;;;;;;4999754;28;20034;-90
2022/04/19 09:05:17;;;;;;;11.52;6.95;;;14.80;95.50;;;;;;5000095;28;20049;-91
2022/04/19 09:07:45;;;;;;;12.43;6.28;;;15.10;94.40;;;;;;4999818;28;20045;-91
2022/04/19 09:10:16;;;;;;;12.07;7.18;;;15.40;93.70;;;;;;4999123;28;20034;-91
2022/04/19 09:13:23;;;;;;;12.07;8.00;;;15.90;91.90;;;;;;4999310;28;20389;-91
2022/04/19 09:15:52;;;;;;;11.52;7.55;;;15.90;90.10;;;;;;4964348;28;20084;-91
2022/04/19 09:18:24;;;;;;;11.77;7.38;;;17.10;88.20;;;;;;4999339;28;20038;-92
2022/04/19 09:20:51;;;;;;;10.38;6.80;;;18.50;81.80;;;;;;4998592;28;20061;-92
2022/04/19 09:23:17;;;;;;;12.60;7.60;;;18.30;75.80;;;;;;4998661;28;20029;-91
2022/04/19 09:25:44;;;;;;;15.10;7.97;;;18.50;75.80;;;;;;4999240;28;20018;-91
2022/04/19 09:28:24;;;;;;;9.68;6.38;;;18.50;71.60;;;;;;4998743;28;20029;-92
2022/04/19 09:30:58;;;;;;;9.35;6.00;;;18.70;65.90;;;;;;4998423;28;20437;-91
2022/04/19 09:33:27;;;;;;;10.25;6.72;;;19.20;63.50;;;;;;4998440;28;20109;-89
2022/04/19 09:35:55;;;;;;;10.57;7.10;;;20.50;60.50;;;;;;4998960;28;20041;-90
2022/04/19 09:38:42;;;;;;;10.40;6.35;;;20.90;56.70;;;;;;4998978;28;20030;-89
2022/04/19 09:41:10;;;;;;;8.95;6.35;;;20.70;55.50;;;;;;4999579;28;20045;-91
2022/04/19 09:43:36;;;;;;;8.50;6.25;;;20.30;54.30;;;;;;4999746;28;20038;-91
2022/04/19 09:46:04;;;;;;;10.85;5.47;;;20.10;54.00;;;;;;4998369;28;20018;-91
2022/04/19 09:48:34;;;;;;;6.65;5.47;;;20.00;56.10;;;;;;4998306;28;20034;-91
2022/04/19 09:51:04;;;;;;;10.10;5.60;;;19.00;56.20;;;;;;4998460;28;20038;-91
2022/04/19 09:54:11;;;;;;;8.88;6.18;;;18.30;56.50;;;;;;4998274;28;20045;-90
2022/04/19 09:56:37;;;;;;;7.85;5.60;;;18.30;57.80;;;;;;5015792;28;20385;-90
2022/04/19 09:59:04;;;;;;;7.90;5.00;;;18.20;57.10;;;;;;4999003;28;20124;-90
2022/04/19 10:09:39;;;;;;;9.95;6.32;;;18.50;58.90;;;;;;4998398;28;20060;-90
2022/04/19 10:12:11;;;;;;;8.43;5.60;;;18.60;58.30;;;;;;5030956;28;20038;-90
2022/04/19 10:14:37;;;;;;;6.22;4.80;;;18.90;56.90;;;;;;4998598;28;20049;-90
2022/04/19 10:17:04;;;;;;;7.88;5.47;;;19.30;56.30;;;;;;4998400;28;20029;-90
2022/04/19 10:19:31;;;;;;;8.68;5.13;;;19.70;53.20;;;;;;4997848;28;20037;-90
2022/04/19 10:22:03;;;;;;;8.60;4.18;;;19.90;53.30;;;;;;5015569;28;20053;-89
2022/04/19 10:24:43;;;;;;;25.67;5.20;;;20.50;51.60;;;;;;4997543;28;20030;-90
2022/04/19 10:27:10;;;;;;;7.35;5.13;;;21.70;50.90;;;;;;5015825;28;20033;-89
2022/04/19 10:29:37;;;;;;;6.55;4.95;;;21.20;50.20;;;;;;4997902;28;20076;-89
2022/04/19 10:32:06;;;;;;;7.03;5.18;;;21.70;49.40;;;;;;4997639;28;20091;-90
2022/04/19 10:34:37;;;;;;;7.25;5.18;;;22.40;51.30;;;;;;5015831;28;20172;-88
2022/04/19 10:37:13;;;;;;;12.77;6.38;;;22.10;49.40;;;;;;5005694;28;20379;-91
2022/04/19 10:39:46;;;;;;;7.28;5.30;;;22.20;49.70;;;;;;5017699;28;20045;-90
2022/04/19 10:42:36;;;;;;;9.77;4.80;;;21.80;49.50;;;;;;4998065;28;20056;-89
2022/04/19 10:45:14;;;;;;;5.32;4.15;;;22.10;48.40;;;;;;4997214;28;20040;-90
2022/04/19 10:47:55;;;;;;;7.28;5.55;;;22.20;49.10;;;;;;4997211;28;20168;-89
2022/04/19 10:50:29;;;;;;;6.65;5.20;;;20.30;49.80;;;;;;4997836;28;20621;-89
2022/04/19 10:53:05;;;;;;;5.88;4.50;;;19.60;53.40;;;;;;4997665;28;20034;-89
2022/04/19 10:55:33;;;;;;;7.00;4.68;;;19.70;50.60;;;;;;4996722;28;20044;-90
2022/04/19 11:00:42;;;;;;;7.82;4.22;;;20.30;51.60;;;;;;5030032;28;20492;-90
2022/04/19 11:03:13;;;;;;;9.70;5.00;;;20.80;52.60;;;;;;4997922;28;20493;-91
2022/04/19 11:05:44;;;;;;;5.50;4.53;;;20.90;52.60;;;;;;4997001;28;20030;-90
2022/04/19 11:08:24;;;;;;;9.75;5.07;;;20.40;52.40;;;;;;4996873;28;20034;-90
2022/04/19 11:11:01;;;;;;;5.63;4.65;;;20.40;51.60;;;;;;4997625;28;20041;-90
2022/04/19 11:13:39;;;;;;;8.88;4.40;;;20.70;51.00;;;;;;4997756;28;20038;-88
2022/04/19 11:16:07;;;;;;;7.88;4.25;;;20.80;50.20;;;;;;4998086;28;20037;-90
2022/04/19 11:18:53;;;;;;;8.18;5.57;;;21.10;50.60;;;;;;4997425;28;20034;-90
2022/04/19 11:21:53;;;;;;;6.78;4.80;;;21.20;50.80;;;;;;4996726;28;20038;-91
2022/04/19 11:24:57;;;;;;;5.80;4.47;;;21.00;49.30;;;;;;4997546;28;20030;-90
2022/04/19 11:27:42;;;;;;;7.30;4.80;;;21.70;48.90;;;;;;4973414;28;20486;-90
2022/04/19 11:30:13;;;;;;;7.05;4.10;;;21.60;48.90;;;;;;4941205;28;20042;-90
2022/04/19 11:32:39;;;;;;;6.18;4.50;;;20.80;49.40;;;;;;4982443;28;20468;-90
2022/04/19 11:35:05;;;;;;;5.05;4.15;;;20.50;49.70;;;;;;4997224;28;20125;-90
2022/04/19 11:37:32;;;;;;;6.00;4.30;;;20.80;48.90;;;;;;4997325;28;20029;-91
2022/04/19 11:48:30;;;;;;;6.38;4.05;;;22.40;48.60;;;;;;5013328;28;20038;-89
2022/04/19 11:51:07;;;;;;;8.32;4.70;;;21.10;49.80;;;;;;4996960;28;20659;-90
2022/04/19 11:53:33;;;;;;;6.47;4.20;;;19.80;50.00;;;;;;4996784;28;20030;-90
2022/04/19 11:55:59;;;;;;;5.85;4.38;;;19.90;51.20;;;;;;4996843;28;20393;-90
2022/04/19 11:58:25;;;;;;;9.65;4.50;;;19.90;48.50;;;;;;4996653;28;20136;-89
2022/04/19 12:01:05;;;;;;;5.43;3.97;;;20.10;48.10;;;;;;4996209;28;20061;-90
2022/04/19 12:03:33;;;;;;;5.63;3.70;;;21.00;49.80;;;;;;4988921;28;20041;-90
2022/04/19 12:06:14;;;;;;;6.20;3.67;;;21.00;49.70;;;;;;5014256;28;20026;-90
2022/04/19 12:08:55;;;;;;;9.25;4.28;;;20.60;50.30;;;;;;5000875;28;20040;-89
2022/04/19 12:11:24;;;;;;;5.45;4.20;;;20.40;49.50;;;;;;5000393;28;20034;-89
2022/04/19 12:13:51;;;;;;;5.45;3.65;;;20.00;49.20;;;;;;5016964;28;20022;-89
2022/04/19 12:16:36;;;;;;;7.57;4.05;;;19.80;47.60;;;;;;5003734;28;20037;-90
2022/04/19 12:19:04;;;;;;;4.57;3.50;;;19.90;48.40;;;;;;4999773;28;20034;-88
2022/04/19 12:21:43;;;;;;;6.65;3.72;;;20.10;49.20;;;;;;5000150;28;20107;-88
2022/04/19 12:24:19;;;;;;;7.05;3.95;;;20.10;50.40;;;;;;5000183;28;20026;-89
2022/04/19 12:26:49;;;;;;;5.90;3.88;;;19.40;52.00;;;;;;5000512;28;20041;-89
2022/04/19 12:29:16;;;;;;;9.82;5.05;;;18.80;49.90;;;;;;5000089;28;20072;-88
2022/04/19 12:31:50;;;;;;;6.75;3.92;;;18.50;53.00;;;;;;5000312;28;20037;-89
2022/04/19 12:34:16;;;;;;;12.93;4.45;;;18.60;53.10;;;;;;5033323;28;20034;-88
2022/04/19 12:36:48;;;;;;;5.97;4.65;;;18.90;52.10;;;;;;4999375;28;20071;-89
2022/04/19 12:39:15;;;;;;;6.93;4.10;;;19.10;53.80;;;;;;5001432;28;20474;-91
2022/04/19 12:41:45;;;;;;;8.98;4.43;;;18.90;54.70;;;;;;5000113;28;20025;-90
2022/04/19 12:44:13;;;;;;;7.80;4.43;;;18.30;55.60;;;;;;5016228;28;20029;-90
2022/04/19 12:46:49;;;;;;;7.25;4.60;;;17.90;53.90;;;;;;5000617;28;20030;-90
2022/04/19 12:50:12;;;;;;;5.80;3.88;;;17.80;54.40;;;;;;5015785;28;20038;-90
2022/04/19 12:52:38;;;;;;;5.70;3.88;;;17.80;55.40;;;;;;4990429;28;20061;-91
2022/04/19 12:55:04;;;;;;;7.55;4.57;;;18.10;53.10;;;;;;4998664;28;20045;-90
2022/04/19 12:57:30;;;;;;;7.15;4.60;;;18.20;51.50;;;;;;4999734;28;20026;-90
2022/04/19 13:00:16;;;;;;;7.53;4.30;;;18.60;53.00;;;;;;5000760;28;20060;-90
2022/04/19 13:02:43;;;;;;;7.05;4.35;;;18.60;51.40;;;;;;5003984;28;20038;-91
2022/04/19 13:05:09;;;;;;;13.27;4.53;;;18.80;53.30;;;;;;5015682;28;20037;-90
2022/04/19 13:13:05;;;;;;;9.80;4.55;;;19.40;52.60;;;;;;5015400;28;20188;-90
2022/04/19 13:15:32;;;;;;;8.38;4.80;;;19.50;53.00;;;;;;4998630;28;20446;-91
2022/04/19 13:17:58;;;;;;;7.20;4.65;;;19.30;53.40;;;;;;4998564;28;20626;-90
2022/04/19 13:20:24;;;;;;;6.82;4.70;;;19.60;52.00;;;;;;5016208;28;20026;-91
2022/04/19 13:23:13;;;;;;;7.07;4.50;;;19.50;51.80;;;;;;4998880;28;20125;-90
2022/04/19 13:25:40;;;;;;;6.70;5.00;;;19.70;50.50;;;;;;4998403;28;20112;-90
2022/04/19 13:28:06;;;;;;;8.43;4.63;;;19.80;51.20;;;;;;5016053;28;20053;-90
2022/04/19 13:30:31;;;;;;;6.70;4.95;;;20.20;50.30;;;;;;4997837;28;20034;-90
2022/04/19 13:32:57;;;;;;;8.50;4.90;;;20.00;50.20;;;;;;5014263;28;20121;-91
2022/04/19 13:35:23;;;;;;;8.13;4.53;;;20.20;49.40;;;;;;4997808;28;20100;-90
2022/04/19 13:40:37;;;;;;;9.82;4.60;;;19.50;50.40;;;;;;5015949;28;20428;-90
2022/04/19 13:43:02;;;;;;;6.75;3.95;;;18.60;51.40;;;;;;4998017;28;20044;-90
2022/04/19 13:45:28;;;;;;;15.27;4.43;;;18.00;53.30;;;;;;4998696;28;20092;-91
2022/04/19 13:47:54;;;;;;;11.27;4.20;;;17.90;54.00;;;;;;5014239;28;20477;-91
2022/04/19 13:50:20;;;;;;;7.20;4.90;;;17.80;55.90;;;;;;4997674;28;20056;-89
2022/04/19 13:52:46;;;;;;;7.20;4.10;;;17.60;54.30;;;;;;4997630;28;20028;-90